Main page
METAR-TAF:

METAR-TAF

Airports :

Soyo Airport

Soyo, Angola

latitude: 6-8-28S, longitude: 12-22-19E, elevation: 5 m

Current weather observation

The report was made 13 hours and 37 minutes ago, at 15:00 UTC
Wind 6 kt from the South/Southwest
Temperature
Pressure
Visibility: 9000 m
Broken clouds at a height of 1400 ft
Scattered clouds at a height of 6000 ft

METAR: FNSO 201500Z 20006KT 9000 BKN014 SCT060 ///// Q////

Time: 05:37 (04:37 UTC)

Forecast

The report was made 5 hours and 52 minutes ago, at 22:45 UTC
Forecast valid from 21 at 00 UTC to 21 at 12 UTC
Wind 3 kt from variable directions
Visibility 10 km or more
Scattered clouds at a height of 1800 ft
Probability 30% :
Temporary
from 21 at 08 UTC to 21 at 12 UTC
Wind 8 kt from the West/Southwest
Visibility: 7000 m
Scattered clouds at a height of 1000 ft
Broken clouds at a height of 2000 ft
light rain

TAF: FNSO 202245Z 2100/2112 VRB03KT 9999 SCT018 PROB30 TEMPO 2108/2112 24008KT 7000 -RA SCT010 BKN020

Weather observations and forecasts of more than 4000 airports (METAR and TAF reports).

The available stations are represented by yellow and red dots on the map.

Hover mouse over dot to see the name of the station.

Then click to see weather observations and forecasts.

To change the map : click on the green buttons with a black cross to zoom in, on the green button with a dash to zoom out, or on the green arrows for adjacent maps.


METAR-TAF: